Time;durP1;ratioP1;P1;durP2;ratioP2;P2;SDS_P1;SDS_P2;PMS_P1;PMS_P2;Temp;Humidity;BMP_temperature;BMP_pressure;BME280_temperature;BME280_humidity;BME280_pressure;Samples;Min_cycle;Max_cycle;Signal;HPM_P1;HPM_P2
2023/06/10 00:02:11;;;;;;;7.72;4.63;;;18.80;99.90;;;;;;4958884;28;20050;-92
2023/06/10 00:04:37;;;;;;;10.60;4.85;;;18.80;99.90;;;;;;4955841;28;20050;-94
2023/06/10 00:07:08;;;;;;;11.85;4.55;;;18.80;99.90;;;;;;4958854;28;20043;-94
2023/06/10 00:09:37;;;;;;;10.02;4.43;;;18.80;99.90;;;;;;4955825;28;20094;-93
2023/06/10 00:12:07;;;;;;;11.82;4.68;;;18.80;99.90;;;;;;4969663;28;20096;-92
2023/06/10 00:14:38;;;;;;;10.68;4.35;;;18.70;99.90;;;;;;4978612;28;20069;-92
2023/06/10 00:17:04;;;;;;;10.93;4.32;;;18.70;99.90;;;;;;4979009;28;20170;-91
2023/06/10 00:19:30;;;;;;;8.25;4.03;;;18.70;99.90;;;;;;4951794;28;20046;-93
2023/06/10 00:21:57;;;;;;;7.43;3.78;;;18.60;99.90;;;;;;4955564;28;20109;-94
2023/06/10 00:24:22;;;;;;;10.70;4.45;;;18.60;99.90;;;;;;4955619;28;20128;-95
2023/06/10 00:26:48;;;;;;;11.13;4.43;;;18.60;99.90;;;;;;4972294;28;20079;-96
2023/06/10 00:29:14;;;;;;;10.35;4.57;;;18.50;99.90;;;;;;4975235;28;20070;-95
2023/06/10 00:31:40;;;;;;;9.77;4.10;;;18.50;99.90;;;;;;4954722;28;20122;-95
2023/06/10 00:34:08;;;;;;;13.25;4.63;;;18.50;99.90;;;;;;4951818;28;20113;-95
2023/06/10 00:36:35;;;;;;;10.98;4.50;;;18.40;99.90;;;;;;4953655;28;20062;-96
2023/06/10 00:39:02;;;;;;;13.65;4.90;;;18.40;99.90;;;;;;4970623;28;20039;-92
2023/06/10 00:41:28;;;;;;;8.20;4.50;;;18.40;99.90;;;;;;4978563;28;20046;-93
2023/06/10 00:43:53;;;;;;;10.80;5.00;;;18.40;99.90;;;;;;4956763;28;20035;-92
2023/06/10 00:46:20;;;;;;;10.02;4.72;;;18.30;99.90;;;;;;4957202;28;20042;-93
2023/06/10 00:48:46;;;;;;;9.38;4.47;;;18.30;99.90;;;;;;4939747;28;20054;-92
2023/06/10 00:51:12;;;;;;;13.90;4.47;;;18.30;99.90;;;;;;4974891;28;20035;-93
2023/06/10 00:53:40;;;;;;;9.77;4.20;;;18.20;99.90;;;;;;4975484;28;20071;-94
2023/06/10 00:56:07;;;;;;;11.63;4.80;;;18.20;99.90;;;;;;4971663;28;20074;-93
2023/06/10 00:58:33;;;;;;;10.00;4.55;;;18.20;99.90;;;;;;4974713;28;20041;-92
2023/06/10 01:00:59;;;;;;;10.93;4.97;;;18.20;99.90;;;;;;4949005;28;20054;-92
2023/06/10 01:03:25;;;;;;;9.75;4.70;;;18.10;99.90;;;;;;4948273;29;20049;-91
2023/06/10 01:06:19;;;;;;;10.32;4.20;;;18.10;99.90;;;;;;4957784;28;20042;-95
2023/06/10 01:09:02;;;;;;;7.53;4.38;;;18.10;99.90;;;;;;4941774;28;20083;-95
2023/06/10 01:11:40;;;;;;;8.63;4.80;;;18.00;99.90;;;;;;4975202;28;20039;-93
2023/06/10 01:14:09;;;;;;;8.73;4.22;;;18.00;99.90;;;;;;4970593;28;20047;-93
2023/06/10 01:16:36;;;;;;;10.27;5.05;;;17.90;99.90;;;;;;4960961;28;20043;-94
2023/06/10 01:19:02;;;;;;;7.18;4.25;;;17.90;99.90;;;;;;4967126;28;20399;-94
2023/06/10 01:21:29;;;;;;;8.75;4.20;;;17.90;99.90;;;;;;4976908;28;20105;-94
2023/06/10 01:23:55;;;;;;;10.48;4.47;;;17.80;99.90;;;;;;4968217;28;20040;-94
2023/06/10 01:26:25;;;;;;;9.35;4.35;;;17.80;99.90;;;;;;4974641;28;20050;-93
2023/06/10 01:28:58;;;;;;;9.63;4.72;;;17.70;99.90;;;;;;4965978;28;20043;-93
2023/06/10 01:31:36;;;;;;;9.50;4.90;;;17.70;99.90;;;;;;4968534;28;20039;-93
2023/06/10 01:34:06;;;;;;;8.38;4.15;;;17.70;99.90;;;;;;4949668;28;20105;-93
2023/06/10 01:36:34;;;;;;;10.23;4.63;;;17.60;99.90;;;;;;4974674;28;20039;-93
2023/06/10 01:39:02;;;;;;;8.48;4.68;;;17.60;99.90;;;;;;4955168;28;20126;-93
2023/06/10 01:41:28;;;;;;;9.82;4.80;;;17.60;99.90;;;;;;4961967;28;20051;-93
2023/06/10 01:43:54;;;;;;;8.80;4.55;;;17.60;99.90;;;;;;4945197;28;20410;-93
2023/06/10 01:46:21;;;;;;;8.63;4.70;;;17.50;99.90;;;;;;4943639;28;20047;-94
2023/06/10 01:48:47;;;;;;;10.63;4.47;;;17.50;99.90;;;;;;4954335;28;20043;-94
2023/06/10 01:51:14;;;;;;;9.68;4.78;;;17.50;99.90;;;;;;4968277;28;20161;-94
2023/06/10 01:53:39;;;;;;;6.72;4.00;;;17.40;99.90;;;;;;4951371;28;20506;-93
2023/06/10 01:56:05;;;;;;;8.77;4.65;;;17.40;99.90;;;;;;4967168;28;20236;-95
2023/06/10 01:58:31;;;;;;;10.15;4.82;;;17.40;99.90;;;;;;4970758;28;20083;-94
2023/06/10 02:00:57;;;;;;;7.90;4.82;;;17.30;99.90;;;;;;4947618;28;20047;-93
2023/06/10 02:03:22;;;;;;;8.40;4.68;;;17.30;99.90;;;;;;4970649;28;20430;-93
2023/06/10 02:05:49;;;;;;;9.32;4.28;;;17.20;99.90;;;;;;4949798;28;20043;-93
2023/06/10 02:08:15;;;;;;;10.63;5.22;;;17.20;99.90;;;;;;4980358;28;20046;-93
2023/06/10 02:10:40;;;;;;;10.18;4.80;;;17.20;99.90;;;;;;4963914;28;20030;-92
2023/06/10 02:13:06;;;;;;;7.78;4.40;;;17.10;99.90;;;;;;4962553;28;20540;-94
2023/06/10 02:15:32;;;;;;;10.45;4.38;;;17.00;99.90;;;;;;4962207;28;20050;-95
2023/06/10 02:17:59;;;;;;;10.15;4.28;;;17.00;99.90;;;;;;4945213;28;20201;-93
2023/06/10 02:20:25;;;;;;;8.73;4.43;;;16.90;99.90;;;;;;4978001;28;20050;-94
2023/06/10 02:22:50;;;;;;;8.48;4.38;;;16.90;99.90;;;;;;4946883;29;20090;-94
2023/06/10 02:25:16;;;;;;;9.68;4.22;;;16.80;99.90;;;;;;4956644;28;20047;-94
2023/06/10 02:27:42;;;;;;;9.02;4.15;;;16.80;99.90;;;;;;4958654;28;20049;-94
2023/06/10 02:30:10;;;;;;;10.40;4.55;;;16.80;99.90;;;;;;4975991;28;20090;-94
2023/06/10 02:32:36;;;;;;;10.23;4.25;;;16.70;99.90;;;;;;4959170;28;20035;-94
2023/06/10 02:35:02;;;;;;;10.50;4.95;;;16.60;99.90;;;;;;4984009;28;20136;-93
2023/06/10 02:37:27;;;;;;;9.95;4.63;;;16.70;99.90;;;;;;4957797;29;20055;-93
2023/06/10 02:39:53;;;;;;;10.25;5.05;;;16.60;99.90;;;;;;4975702;28;20031;-93
2023/06/10 02:42:19;;;;;;;9.98;4.50;;;16.60;99.90;;;;;;4960932;28;20426;-93
2023/06/10 02:44:44;;;;;;;9.02;4.70;;;16.50;99.90;;;;;;4978055;28;20557;-93
2023/06/10 02:47:10;;;;;;;11.57;5.20;;;16.50;99.90;;;;;;4975891;28;20043;-93
2023/06/10 02:49:36;;;;;;;8.27;4.63;;;16.40;99.90;;;;;;4960260;29;20086;-93
2023/06/10 02:52:02;;;;;;;8.30;4.22;;;16.50;99.90;;;;;;4965000;28;20082;-93
2023/06/10 02:54:28;;;;;;;8.45;4.47;;;16.40;99.90;;;;;;4949075;28;20047;-94
2023/06/10 02:56:55;;;;;;;7.88;4.20;;;16.40;99.90;;;;;;4975820;28;20467;-94
2023/06/10 02:59:21;;;;;;;6.78;4.38;;;16.40;99.90;;;;;;4963614;28;20555;-93
2023/06/10 03:01:47;;;;;;;8.05;3.80;;;16.30;99.90;;;;;;4961421;28;20063;-93
2023/06/10 03:04:14;;;;;;;9.18;4.45;;;16.40;99.90;;;;;;4978897;28;20066;-94
2023/06/10 03:06:45;;;;;;;11.07;4.97;;;16.30;99.90;;;;;;4983482;28;20053;-94
2023/06/10 03:09:11;;;;;;;7.97;5.07;;;16.30;99.90;;;;;;4978925;28;20296;-94
2023/06/10 03:11:36;;;;;;;10.10;5.15;;;16.30;99.90;;;;;;4966506;28;20034;-93
2023/06/10 03:14:02;;;;;;;9.55;5.15;;;16.20;99.90;;;;;;4949643;28;20063;-93
2023/06/10 03:16:30;;;;;;;12.05;4.90;;;16.20;99.90;;;;;;4982902;28;20070;-94
2023/06/10 03:18:55;;;;;;;8.23;4.85;;;16.20;99.90;;;;;;4978717;28;20582;-93
2023/06/10 03:21:21;;;;;;;11.00;5.50;;;16.10;99.90;;;;;;4976892;28;20039;-93
2023/06/10 03:23:47;;;;;;;8.60;4.97;;;16.00;99.90;;;;;;4956424;28;20096;-92
2023/06/10 03:26:14;;;;;;;10.77;4.97;;;16.00;99.90;;;;;;4975035;28;20046;-93
2023/06/10 03:28:39;;;;;;;8.98;4.65;;;16.00;99.90;;;;;;4961954;28;20038;-93
2023/06/10 03:31:05;;;;;;;9.07;4.95;;;15.90;99.90;;;;;;4943179;29;20375;-94
2023/06/10 03:33:31;;;;;;;10.30;4.80;;;15.90;99.90;;;;;;4976178;28;20053;-92
2023/06/10 03:35:56;;;;;;;9.90;5.05;;;15.90;99.90;;;;;;4974223;28;20046;-92
2023/06/10 03:38:22;;;;;;;9.40;4.60;;;15.80;99.90;;;;;;4971322;28;20181;-92
2023/06/10 03:40:48;;;;;;;9.00;4.70;;;15.80;99.90;;;;;;4977223;28;20047;-93
2023/06/10 03:43:14;;;;;;;7.55;4.65;;;15.70;99.90;;;;;;4982702;28;20118;-94
2023/06/10 03:45:41;;;;;;;8.95;4.28;;;15.70;99.90;;;;;;4958318;29;20043;-94
2023/06/10 03:48:08;;;;;;;7.50;4.43;;;15.70;99.90;;;;;;4980810;28;20156;-94
2023/06/10 03:50:34;;;;;;;11.82;5.07;;;15.70;99.90;;;;;;4957356;29;20043;-93
2023/06/10 03:53:00;;;;;;;9.43;4.35;;;15.60;99.90;;;;;;4943425;28;20047;-94
2023/06/10 03:55:26;;;;;;;9.20;4.50;;;15.60;99.90;;;;;;4983519;28;20078;-93
2023/06/10 03:57:52;;;;;;;11.35;5.00;;;15.60;99.90;;;;;;4980661;28;20046;-94
2023/06/10 04:00:21;;;;;;;12.57;4.28;;;15.60;99.90;;;;;;4973185;28;20039;-93
2023/06/10 04:02:47;;;;;;;12.02;4.90;;;15.60;99.90;;;;;;4959466;28;20046;-93
2023/06/10 04:05:13;;;;;;;9.35;4.45;;;15.50;99.90;;;;;;4974367;28;20042;-94
2023/06/10 04:07:40;;;;;;;9.50;4.32;;;15.50;99.90;;;;;;4965357;28;20102;-92
2023/06/10 04:10:07;;;;;;;10.27;4.57;;;15.50;99.90;;;;;;4957478;28;20085;-93
2023/06/10 04:12:33;;;;;;;11.63;5.60;;;15.50;99.90;;;;;;4952844;28;20070;-94
2023/06/10 04:14:59;;;;;;;8.70;4.88;;;15.40;99.90;;;;;;4944679;29;20043;-94
2023/06/10 04:17:25;;;;;;;9.55;4.72;;;15.40;99.90;;;;;;4970409;28;20043;-94
2023/06/10 04:19:51;;;;;;;10.38;5.18;;;15.40;99.90;;;;;;4973131;28;20126;-94
2023/06/10 04:22:18;;;;;;;9.27;4.75;;;15.40;99.90;;;;;;4970737;28;20039;-93
2023/06/10 04:24:44;;;;;;;14.07;5.30;;;15.40;99.90;;;;;;4963302;28;20114;-94
2023/06/10 04:27:10;;;;;;;9.70;5.25;;;15.40;99.90;;;;;;4963727;28;20533;-93
2023/06/10 04:29:36;;;;;;;13.30;5.57;;;15.30;99.90;;;;;;4953733;29;20081;-93
2023/06/10 04:32:02;;;;;;;12.65;5.80;;;15.30;99.90;;;;;;4953362;28;20047;-93
2023/06/10 04:34:28;;;;;;;12.50;5.65;;;15.30;99.90;;;;;;4955901;28;20074;-93
2023/06/10 04:36:54;;;;;;;11.43;5.90;;;15.30;99.90;;;;;;4938908;29;20050;-94
2023/06/10 04:39:19;;;;;;;12.23;5.13;;;15.30;99.90;;;;;;4959526;29;20046;-94
2023/06/10 04:41:46;;;;;;;10.45;5.78;;;15.30;99.90;;;;;;4955356;29;20051;-92
2023/06/10 04:44:12;;;;;;;11.00;5.07;;;15.30;99.90;;;;;;4958127;29;20063;-93
2023/06/10 04:46:38;;;;;;;11.10;5.47;;;15.30;99.90;;;;;;4955052;29;20047;-95
2023/06/10 04:49:04;;;;;;;13.23;5.68;;;15.40;99.90;;;;;;4960212;28;20043;-94
2023/06/10 04:51:31;;;;;;;10.80;5.47;;;15.40;99.90;;;;;;4944483;29;20091;-93
2023/06/10 04:53:57;;;;;;;11.95;5.70;;;15.40;99.90;;;;;;4959604;29;20043;-95
2023/06/10 04:56:24;;;;;;;12.23;6.00;;;15.40;99.90;;;;;;4956158;29;20059;-94
2023/06/10 04:58:49;;;;;;;15.25;6.32;;;15.40;99.90;;;;;;4935196;29;20044;-95
2023/06/10 05:01:15;;;;;;;9.30;5.32;;;15.60;99.90;;;;;;4961255;29;20137;-93
2023/06/10 05:03:41;;;;;;;13.18;6.40;;;15.40;99.90;;;;;;4949933;29;20070;-93
2023/06/10 05:06:07;;;;;;;11.40;5.40;;;15.40;99.90;;;;;;4945674;29;20042;-93
2023/06/10 05:08:36;;;;;;;11.85;6.00;;;15.50;99.90;;;;;;4954012;29;20031;-92
2023/06/10 05:11:02;;;;;;;14.93;6.30;;;15.50;99.90;;;;;;4942275;29;20103;-94
2023/06/10 05:13:28;;;;;;;13.35;6.38;;;15.50;99.90;;;;;;4960078;29;20039;-94
2023/06/10 05:15:53;;;;;;;12.20;4.80;;;15.50;99.90;;;;;;4961020;29;20035;-93
2023/06/10 05:18:19;;;;;;;10.50;4.97;;;15.50;99.90;;;;;;4939298;29;20043;-93
2023/06/10 05:20:45;;;;;;;14.63;6.55;;;15.50;99.90;;;;;;4941373;29;20062;-93
2023/06/10 05:23:11;;;;;;;14.27;6.88;;;15.50;99.90;;;;;;4958074;29;20050;-94
2023/06/10 05:25:36;;;;;;;14.57;6.25;;;15.60;99.90;;;;;;4948631;29;20039;-94
2023/06/10 05:28:02;;;;;;;12.25;6.45;;;15.60;99.90;;;;;;4956987;29;20047;-93
2023/06/10 05:30:28;;;;;;;14.35;6.63;;;15.60;99.90;;;;;;4950730;29;20080;-94
2023/06/10 05:32:55;;;;;;;11.48;6.28;;;15.60;99.90;;;;;;4961087;29;20050;-94
2023/06/10 05:35:21;;;;;;;14.65;5.80;;;15.60;99.90;;;;;;4971303;28;20058;-94
2023/06/10 05:37:47;;;;;;;14.45;6.22;;;15.60;99.90;;;;;;4955202;28;20570;-94
2023/06/10 05:40:13;;;;;;;13.50;6.38;;;15.70;99.90;;;;;;4948037;28;20109;-93
2023/06/10 05:42:38;;;;;;;15.88;7.40;;;15.70;99.90;;;;;;4959964;28;20057;-93
2023/06/10 05:45:06;;;;;;;15.50;6.70;;;15.70;99.90;;;;;;4972631;28;20050;-94
2023/06/10 05:47:32;;;;;;;12.50;5.30;;;15.70;99.90;;;;;;4973895;28;20047;-93
2023/06/10 05:49:58;;;;;;;13.80;6.63;;;15.70;99.90;;;;;;4954957;28;20031;-94
2023/06/10 05:52:23;;;;;;;14.05;6.45;;;15.70;99.90;;;;;;4978964;28;20482;-95
2023/06/10 05:54:50;;;;;;;12.32;6.40;;;15.70;99.90;;;;;;4977346;28;20099;-94
2023/06/10 05:57:15;;;;;;;11.77;6.53;;;15.70;99.90;;;;;;4945863;28;20066;-95
2023/06/10 05:59:41;;;;;;;15.63;6.07;;;15.80;99.90;;;;;;4947939;28;20485;-94
2023/06/10 06:02:07;;;;;;;14.15;6.30;;;15.80;99.90;;;;;;4952923;28;20043;-93
2023/06/10 06:04:34;;;;;;;18.30;7.40;;;15.80;99.90;;;;;;4973215;28;20102;-94
2023/06/10 06:06:59;;;;;;;16.05;6.80;;;15.90;99.90;;;;;;4947649;28;20110;-94
2023/06/10 06:09:25;;;;;;;15.25;6.63;;;15.90;99.90;;;;;;4970189;28;20073;-93
2023/06/10 06:11:51;;;;;;;11.27;6.60;;;15.90;99.90;;;;;;4954603;28;20586;-93
2023/06/10 06:14:17;;;;;;;11.30;4.93;;;15.90;99.90;;;;;;4974569;28;20034;-93
2023/06/10 06:16:42;;;;;;;14.55;7.22;;;15.90;99.90;;;;;;4953354;28;20051;-93
2023/06/10 06:19:09;;;;;;;10.10;4.57;;;16.00;99.90;;;;;;4962958;28;20054;-94
2023/06/10 06:21:35;;;;;;;14.07;6.43;;;16.00;99.90;;;;;;4952114;28;20051;-95
2023/06/10 06:26:30;;;;;;;13.07;6.93;;;16.10;99.90;;;;;;5017816;28;20074;-82
2023/06/10 06:28:55;;;;;;;14.27;6.75;;;16.10;99.90;;;;;;5004486;28;20147;-90
2023/06/10 06:31:21;;;;;;;13.52;5.93;;;16.20;99.90;;;;;;5023233;28;20044;-89
2023/06/10 06:33:47;;;;;;;13.27;6.60;;;16.20;99.90;;;;;;5024446;28;20096;-88
2023/06/10 06:36:12;;;;;;;13.60;6.65;;;16.20;99.90;;;;;;5027466;28;20048;-91
2023/06/10 06:38:38;;;;;;;13.55;6.68;;;16.20;99.90;;;;;;5029610;28;20096;-91
2023/06/10 06:41:06;;;;;;;14.43;5.93;;;16.40;99.90;;;;;;5019574;28;20038;-94
2023/06/10 06:43:32;;;;;;;14.68;6.88;;;16.40;99.90;;;;;;5143721;23;20056;-95
2023/06/10 06:46:23;;;;;;;14.95;6.07;;;16.50;99.90;;;;;;5029749;23;20059;-91
2023/06/10 06:48:48;;;;;;;12.10;6.07;;;16.50;99.90;;;;;;4972229;28;20058;-92
2023/06/10 06:51:14;;;;;;;13.02;5.63;;;16.50;99.90;;;;;;4993334;28;20043;-91
2023/06/10 06:53:44;;;;;;;10.57;5.68;;;16.50;99.90;;;;;;4988563;28;20050;-91
2023/06/10 06:56:10;;;;;;;14.70;6.38;;;16.60;99.90;;;;;;4989319;28;20046;-89
2023/06/10 06:58:36;;;;;;;9.60;5.70;;;16.60;99.90;;;;;;4993704;28;20089;-93
2023/06/10 07:01:01;;;;;;;16.38;6.68;;;16.70;99.90;;;;;;4987083;28;20393;-96
2023/06/10 07:03:29;;;;;;;13.52;6.72;;;16.70;99.90;;;;;;4979758;28;20035;-95
2023/06/10 07:05:59;;;;;;;12.25;5.70;;;16.80;99.90;;;;;;5088319;23;20144;-96
2023/06/10 07:11:00;;;;;;;13.25;6.13;;;17.00;99.90;;;;;;5066133;23;20093;-96
2023/06/10 07:13:29;;;;;;;10.80;4.68;;;17.20;99.90;;;;;;5057723;23;20050;-93
2023/06/10 07:15:54;;;;;;;12.25;5.80;;;17.50;99.90;;;;;;4992782;28;20771;-94
2023/06/10 07:18:20;;;;;;;11.73;6.00;;;17.90;99.90;;;;;;4990582;28;20073;-91
2023/06/10 07:20:46;;;;;;;12.20;5.25;;;18.30;99.90;;;;;;4995923;28;20099;-92
2023/06/10 07:23:11;;;;;;;12.70;5.72;;;18.60;99.90;;;;;;5006857;28;20050;-91
2023/06/10 07:25:37;;;;;;;12.77;5.47;;;19.00;99.90;;;;;;4992310;28;20058;-90
2023/06/10 07:28:03;;;;;;;10.32;5.18;;;19.30;99.90;;;;;;5002878;28;20041;-88
2023/06/10 07:30:28;;;;;;;11.57;4.97;;;19.70;99.90;;;;;;4991554;28;20124;-88
2023/06/10 07:32:55;;;;;;;11.80;5.40;;;20.00;99.90;;;;;;4986218;28;20050;-91
2023/06/10 07:35:21;;;;;;;9.32;5.07;;;20.30;99.90;;;;;;4994807;28;20104;-90
2023/06/10 07:37:47;;;;;;;8.43;5.30;;;20.50;99.90;;;;;;4997798;28;20034;-91
2023/06/10 07:40:12;;;;;;;12.75;5.40;;;20.70;99.90;;;;;;4997953;28;20113;-91
2023/06/10 07:42:38;;;;;;;14.05;5.93;;;20.90;99.90;;;;;;4985206;28;20093;-90
2023/06/10 07:45:05;;;;;;;14.10;5.70;;;21.10;99.90;;;;;;4983728;28;20493;-89
2023/06/10 07:47:32;;;;;;;12.30;5.75;;;21.20;99.90;;;;;;4992962;28;20045;-89
2023/06/10 07:49:58;;;;;;;10.48;4.95;;;21.40;99.90;;;;;;4979756;28;20042;-91
2023/06/10 07:52:25;;;;;;;12.40;5.43;;;21.50;99.90;;;;;;4992032;28;20042;-91
2023/06/10 07:54:51;;;;;;;11.30;5.40;;;21.60;99.90;;;;;;4988173;28;20054;-91
2023/06/10 07:57:17;;;;;;;9.60;5.28;;;21.70;99.90;;;;;;5000942;28;20040;-91
2023/06/10 07:59:44;;;;;;;14.23;5.63;;;21.80;99.90;;;;;;5005929;28;20034;-90
2023/06/10 08:02:10;;;;;;;12.80;5.75;;;21.90;99.90;;;;;;5000648;28;20044;-91
2023/06/10 08:04:35;;;;;;;11.02;5.57;;;22.00;99.90;;;;;;5005582;28;20038;-92
2023/06/10 08:07:02;;;;;;;15.43;5.40;;;22.00;99.90;;;;;;4999216;28;20038;-92
2023/06/10 08:09:28;;;;;;;10.43;5.07;;;22.10;99.90;;;;;;4990574;28;20075;-90
2023/06/10 08:11:55;;;;;;;9.00;5.00;;;22.20;99.90;;;;;;4997509;28;20122;-91
2023/06/10 08:14:24;;;;;;;9.32;4.57;;;22.20;99.90;;;;;;4993429;28;20089;-91
2023/06/10 08:16:50;;;;;;;8.75;5.20;;;22.20;99.90;;;;;;4979077;28;20057;-91
2023/06/10 08:19:16;;;;;;;9.82;5.22;;;22.30;99.90;;;;;;4987122;28;20073;-91
2023/06/10 08:21:41;;;;;;;10.32;4.90;;;22.30;99.90;;;;;;4989765;28;20065;-91
2023/06/10 08:24:07;;;;;;;9.40;5.20;;;22.40;99.90;;;;;;5004851;28;20073;-91
2023/06/10 08:26:33;;;;;;;9.35;4.18;;;22.40;99.90;;;;;;5004819;28;20049;-91
2023/06/10 08:28:58;;;;;;;10.80;4.97;;;22.50;99.90;;;;;;4987809;28;20046;-91
2023/06/10 08:31:24;;;;;;;10.50;4.93;;;22.50;99.90;;;;;;4985132;28;20113;-91
2023/06/10 08:33:50;;;;;;;8.90;4.35;;;22.60;99.90;;;;;;4979460;28;20080;-90
2023/06/10 08:36:15;;;;;;;9.60;4.82;;;22.50;99.90;;;;;;4991892;28;20054;-91
2023/06/10 08:38:41;;;;;;;8.13;4.32;;;22.60;99.90;;;;;;4999547;28;20065;-91
2023/06/10 08:41:08;;;;;;;8.13;3.97;;;22.60;99.90;;;;;;4989933;28;20042;-91
2023/06/10 08:43:43;;;;;;;11.60;4.40;;;22.70;99.90;;;;;;4988641;28;20034;-90
2023/06/10 08:46:10;;;;;;;10.38;4.50;;;22.70;99.90;;;;;;4983598;28;20045;-91
2023/06/10 08:48:42;;;;;;;8.82;3.90;;;22.80;99.90;;;;;;5002353;28;20085;-91
2023/06/10 08:51:10;;;;;;;9.02;4.10;;;22.80;99.90;;;;;;4987951;28;20049;-91
2023/06/10 08:53:41;;;;;;;11.45;4.25;;;22.80;99.90;;;;;;4999172;28;20053;-90
2023/06/10 08:56:07;;;;;;;9.15;4.43;;;22.90;99.90;;;;;;4987521;28;20069;-92
2023/06/10 08:58:35;;;;;;;7.50;4.40;;;22.90;99.90;;;;;;4998301;28;20081;-91
2023/06/10 09:01:01;;;;;;;11.73;4.88;;;22.90;99.90;;;;;;4988598;28;20050;-92
2023/06/10 09:03:27;;;;;;;9.68;4.10;;;23.00;99.90;;;;;;4986024;28;20054;-91
2023/06/10 09:05:55;;;;;;;6.72;3.70;;;23.10;99.90;;;;;;5000513;28;20130;-91
2023/06/10 09:08:20;;;;;;;7.75;3.55;;;23.10;99.90;;;;;;4997623;28;20038;-91
2023/06/10 09:10:47;;;;;;;11.40;4.32;;;23.10;99.90;;;;;;5002574;28;20034;-92
2023/06/10 09:13:15;;;;;;;8.90;4.13;;;23.30;99.90;;;;;;4979082;28;20062;-90
2023/06/10 09:15:41;;;;;;;10.63;4.25;;;23.40;99.90;;;;;;4994666;28;20049;-89
2023/06/10 09:18:07;;;;;;;11.82;3.92;;;23.50;99.90;;;;;;4975715;28;20042;-91
2023/06/10 09:20:33;;;;;;;13.55;4.60;;;23.60;99.90;;;;;;4982748;28;20049;-91
2023/06/10 09:23:01;;;;;;;9.48;4.75;;;23.70;99.90;;;;;;4991544;28;20149;-87
2023/06/10 09:25:37;;;;;;;9.45;3.70;;;23.70;99.60;;;;;;5000145;28;20054;-95
2023/06/10 09:28:04;;;;;;;10.60;4.22;;;23.80;99.20;;;;;;5004553;28;20038;-94
2023/06/10 09:30:34;;;;;;;8.25;3.88;;;23.80;99.10;;;;;;4997154;28;20037;-93
2023/06/10 09:33:10;;;;;;;9.43;4.20;;;23.90;99.10;;;;;;5007997;28;20050;-95
2023/06/10 09:35:36;;;;;;;9.90;3.95;;;24.10;99.10;;;;;;4990233;28;20045;-94
2023/06/10 09:38:02;;;;;;;7.75;4.00;;;24.10;99.10;;;;;;4991987;28;20034;-94
2023/06/10 09:40:28;;;;;;;10.35;4.00;;;24.20;98.60;;;;;;4980193;28;20133;-95
2023/06/10 09:42:56;;;;;;;7.60;3.88;;;24.30;98.80;;;;;;4975932;28;20369;-96
2023/06/10 09:45:22;;;;;;;8.80;4.40;;;24.30;98.70;;;;;;4989840;28;20034;-95
2023/06/10 09:47:52;;;;;;;7.10;3.80;;;24.30;98.60;;;;;;5007694;28;20175;-94
2023/06/10 09:50:18;;;;;;;10.13;3.97;;;24.40;98.40;;;;;;4989631;28;20050;-92
2023/06/10 09:52:46;;;;;;;8.98;3.97;;;24.50;98.20;;;;;;4983949;28;20504;-92
2023/06/10 09:55:12;;;;;;;7.15;3.22;;;24.60;98.10;;;;;;5005531;28;20043;-90
2023/06/10 09:57:38;;;;;;;8.98;4.13;;;24.70;98.10;;;;;;4988261;28;20041;-90
2023/06/10 10:00:06;;;;;;;10.57;4.03;;;24.80;97.90;;;;;;4978227;28;20482;-85
2023/06/10 10:02:32;;;;;;;10.50;3.90;;;24.90;97.40;;;;;;4995531;28;20160;-85
2023/06/10 10:05:06;;;;;;;8.80;3.92;;;24.90;97.30;;;;;;4993912;28;20126;-85
2023/06/10 10:07:32;;;;;;;7.40;3.80;;;25.00;97.10;;;;;;4999095;28;20124;-85
2023/06/10 10:09:57;;;;;;;7.57;3.60;;;25.00;96.80;;;;;;4987345;28;20399;-85
2023/06/10 10:12:26;;;;;;;9.52;3.80;;;25.10;96.90;;;;;;4974218;28;20050;-85
2023/06/10 10:14:55;;;;;;;7.65;3.38;;;25.20;96.80;;;;;;4996101;28;20050;-85
2023/06/10 10:17:23;;;;;;;9.20;3.67;;;25.30;96.70;;;;;;4996018;28;20042;-86
2023/06/10 10:19:56;;;;;;;7.18;3.75;;;25.30;96.60;;;;;;4997380;28;20034;-95
2023/06/10 10:22:26;;;;;;;7.05;3.08;;;25.40;96.40;;;;;;4985207;28;20050;-92
2023/06/10 10:25:07;;;;;;;7.97;3.65;;;25.40;96.40;;;;;;5009504;28;20065;-92
2023/06/10 10:27:38;;;;;;;10.60;3.72;;;25.50;96.40;;;;;;5001588;28;20065;-94
2023/06/10 10:30:08;;;;;;;9.70;3.58;;;25.50;96.90;;;;;;5003435;28;20057;-94
2023/06/10 10:32:59;;;;;;;8.73;3.67;;;25.60;96.70;;;;;;4999345;28;20053;-96
2023/06/10 10:35:25;;;;;;;6.70;3.10;;;25.70;96.30;;;;;;4989643;28;20058;-95
2023/06/10 10:37:55;;;;;;;7.90;3.83;;;25.80;96.20;;;;;;4988179;28;20044;-93
2023/06/10 10:40:22;;;;;;;7.18;3.45;;;25.90;95.90;;;;;;4986740;28;20097;-94
2023/06/10 10:42:50;;;;;;;10.90;3.50;;;26.00;95.70;;;;;;5011885;28;20574;-95
2023/06/10 10:45:15;;;;;;;6.10;3.22;;;26.00;95.80;;;;;;4995746;28;20093;-95
2023/06/10 10:47:44;;;;;;;7.45;3.25;;;26.10;95.60;;;;;;5095461;23;20073;-96
2023/06/10 10:50:18;;;;;;;6.95;3.30;;;26.30;95.00;;;;;;5049473;23;20046;-96
2023/06/10 10:53:04;;;;;;;7.47;3.17;;;26.50;94.80;;;;;;4991779;28;20069;-95
2023/06/10 10:55:30;;;;;;;8.63;3.60;;;26.40;95.10;;;;;;4995417;28;20127;-96
2023/06/10 10:58:16;;;;;;;6.53;3.13;;;26.40;95.30;;;;;;4993033;28;20054;-95
2023/06/10 11:00:49;;;;;;;5.45;2.70;;;26.50;94.20;;;;;;5246277;22;20065;-96
2023/06/10 11:03:16;;;;;;;5.97;3.33;;;26.60;94.10;;;;;;4992493;28;20189;-91
2023/06/10 11:05:49;;;;;;;7.25;3.08;;;26.60;94.60;;;;;;4984859;28;20042;-92
2023/06/10 11:08:32;;;;;;;7.47;3.20;;;26.70;94.40;;;;;;4989059;28;20037;-88
2023/06/10 11:10:58;;;;;;;6.10;2.50;;;26.80;94.10;;;;;;4992817;28;20042;-90
2023/06/10 11:13:26;;;;;;;8.68;3.35;;;26.80;93.80;;;;;;4987360;28;20130;-90
2023/06/10 11:15:56;;;;;;;6.65;2.78;;;26.80;93.60;;;;;;4986984;28;20576;-91
2023/06/10 11:18:27;;;;;;;6.90;3.00;;;26.90;93.80;;;;;;4988796;28;20046;-93
2023/06/10 11:20:55;;;;;;;14.15;3.80;;;26.90;93.70;;;;;;4969696;28;20117;-92
2023/06/10 11:23:27;;;;;;;7.65;2.70;;;26.90;94.00;;;;;;4983467;28;20050;-95
2023/06/10 11:26:26;;;;;;;9.88;3.17;;;26.90;94.40;;;;;;4992451;28;20046;-94
2023/06/10 11:28:55;;;;;;;9.07;3.40;;;27.00;94.80;;;;;;4994205;28;20076;-93
2023/06/10 11:31:22;;;;;;;6.65;2.95;;;27.10;94.90;;;;;;4990668;28;20079;-95
2023/06/10 11:33:55;;;;;;;7.40;2.83;;;27.20;94.70;;;;;;4980910;28;20047;-92
2023/06/10 11:36:22;;;;;;;7.30;3.08;;;27.20;94.20;;;;;;4993737;28;20214;-93
2023/06/10 11:38:48;;;;;;;8.07;3.35;;;27.20;94.50;;;;;;4982196;28;20061;-91
2023/06/10 11:41:15;;;;;;;6.57;3.28;;;27.30;94.90;;;;;;4987975;28;20085;-94
2023/06/10 11:43:47;;;;;;;6.93;3.00;;;27.40;95.10;;;;;;4986629;28;20129;-90
2023/06/10 11:46:14;;;;;;;9.23;3.10;;;27.50;95.00;;;;;;4981723;28;20037;-89
2023/06/10 11:48:48;;;;;;;6.85;3.13;;;27.60;95.10;;;;;;4994112;28;20049;-81
2023/06/10 11:51:13;;;;;;;;;;;27.70;95.20;;;;;;4973578;28;20503;-83
2023/06/10 11:53:39;;;;;;;6.60;2.72;;;27.80;94.80;;;;;;4977681;28;19928;-92
2023/06/10 11:56:05;;;;;;;6.32;3.55;;;27.80;94.70;;;;;;4988848;28;20434;-91
2023/06/10 11:58:30;;;;;;;6.82;3.15;;;27.90;94.70;;;;;;4985228;28;20117;-90
2023/06/10 12:00:57;;;;;;;6.80;2.63;;;28.00;94.80;;;;;;4981702;28;20144;-92
2023/06/10 12:03:24;;;;;;;7.85;3.50;;;28.00;94.30;;;;;;4992222;28;20047;-93
2023/06/10 12:06:06;;;;;;;5.95;3.45;;;28.00;94.20;;;;;;4988573;28;20039;-92
2023/06/10 12:08:33;;;;;;;9.23;3.13;;;28.00;94.60;;;;;;4963343;28;20039;-91
2023/06/10 12:10:59;;;;;;;6.00;3.15;;;28.10;94.20;;;;;;4981746;28;20050;-94
2023/06/10 12:13:27;;;;;;;7.78;2.83;;;28.20;94.00;;;;;;4978827;28;20053;-87
2023/06/10 12:15:54;;;;;;;6.20;3.10;;;28.20;93.30;;;;;;4985506;28;20207;-94
2023/06/10 12:18:22;;;;;;;6.68;3.05;;;28.20;93.20;;;;;;4971999;28;20034;-93
2023/06/10 12:20:48;;;;;;;7.40;3.05;;;28.10;93.90;;;;;;4979372;28;20129;-92
2023/06/10 12:23:17;;;;;;;9.10;3.08;;;28.20;93.70;;;;;;4985202;28;20047;-92
2023/06/10 12:25:56;;;;;;;8.00;3.30;;;28.20;93.00;;;;;;4984388;28;20089;-91
2023/06/10 12:28:23;;;;;;;6.53;3.10;;;28.20;93.20;;;;;;4991958;28;20034;-91
2023/06/10 12:30:48;;;;;;;6.10;3.38;;;28.20;93.30;;;;;;4982790;28;20046;-88
2023/06/10 12:33:21;;;;;;;6.63;3.65;;;28.30;93.40;;;;;;4983361;28;20045;-90
2023/06/10 12:35:51;;;;;;;9.63;3.43;;;28.40;93.80;;;;;;4983902;28;20038;-87
2023/06/10 12:38:27;;;;;;;6.45;3.35;;;28.50;93.50;;;;;;4992040;28;20074;-91
2023/06/10 12:40:53;;;;;;;6.18;3.45;;;28.60;93.70;;;;;;4965003;28;20054;-94
2023/06/10 12:43:25;;;;;;;6.55;3.40;;;28.70;93.50;;;;;;4983518;28;20042;-92
2023/06/10 12:45:51;;;;;;;5.47;3.05;;;28.70;93.60;;;;;;4981009;28;20050;-85
2023/06/10 12:48:24;;;;;;;8.85;3.67;;;28.80;93.70;;;;;;4977898;28;20070;-93
2023/06/10 12:50:59;;;;;;;8.57;3.10;;;28.90;93.60;;;;;;4987868;28;20038;-93